sensor_id;sensor_type;location;lat;lon;timestamp;temperature;humidity
24678;DHT22;12800;53.094;8.778;2022-10-04T00:01:57;13.50;86.50
24678;DHT22;12800;53.094;8.778;2022-10-04T00:09:49;13.50;86.60
24678;DHT22;12800;53.094;8.778;2022-10-04T00:12:44;13.50;86.60
24678;DHT22;12800;53.094;8.778;2022-10-04T00:15:32;13.50;86.50
24678;DHT22;12800;53.094;8.778;2022-10-04T00:21:04;13.50;86.60
24678;DHT22;12800;53.094;8.778;2022-10-04T00:28:53;13.60;86.60
24678;DHT22;12800;53.094;8.778;2022-10-04T00:31:24;13.60;86.50
24678;DHT22;12800;53.094;8.778;2022-10-04T00:36:37;13.60;86.40
24678;DHT22;12800;53.094;8.778;2022-10-04T00:44:10;13.50;86.40
24678;DHT22;12800;53.094;8.778;2022-10-04T00:46:43;13.50;86.50
24678;DHT22;12800;53.094;8.778;2022-10-04T00:49:11;13.50;86.50
24678;DHT22;12800;53.094;8.778;2022-10-04T00:51:49;13.50;86.50
24678;DHT22;12800;53.094;8.778;2022-10-04T00:56:52;13.50;86.50
24678;DHT22;12800;53.094;8.778;2022-10-04T01:02:00;13.50;86.50
24678;DHT22;12800;53.094;8.778;2022-10-04T01:07:04;13.50;86.60
24678;DHT22;12800;53.094;8.778;2022-10-04T01:09:35;13.50;86.50
24678;DHT22;12800;53.094;8.778;2022-10-04T01:17:28;13.40;86.60
24678;DHT22;12800;53.094;8.778;2022-10-04T01:19:54;13.40;86.70
24678;DHT22;12800;53.094;8.778;2022-10-04T01:22:41;13.40;87.50
24678;DHT22;12800;53.094;8.778;2022-10-04T01:25:07;13.40;86.70
24678;DHT22;12800;53.094;8.778;2022-10-04T01:27:42;13.40;86.70
24678;DHT22;12800;53.094;8.778;2022-10-04T01:30:12;13.40;86.80
24678;DHT22;12800;53.094;8.778;2022-10-04T01:32:38;13.40;86.80
24678;DHT22;12800;53.094;8.778;2022-10-04T01:35:07;13.50;86.80
24678;DHT22;12800;53.094;8.778;2022-10-04T01:37:34;13.50;86.80
24678;DHT22;12800;53.094;8.778;2022-10-04T01:40:00;13.50;86.80
24678;DHT22;12800;53.094;8.778;2022-10-04T01:42:37;13.50;86.80
24678;DHT22;12800;53.094;8.778;2022-10-04T01:48:15;13.50;86.80
24678;DHT22;12800;53.094;8.778;2022-10-04T01:50:45;13.50;86.80
24678;DHT22;12800;53.094;8.778;2022-10-04T01:55:43;13.50;86.70
24678;DHT22;12800;53.094;8.778;2022-10-04T01:58:16;13.50;86.70
24678;DHT22;12800;53.094;8.778;2022-10-04T02:00:48;13.50;86.80
24678;DHT22;12800;53.094;8.778;2022-10-04T02:03:34;13.50;86.70
24678;DHT22;12800;53.094;8.778;2022-10-04T02:06:04;13.40;86.60
24678;DHT22;12800;53.094;8.778;2022-10-04T02:08:34;13.40;86.70
24678;DHT22;12800;53.094;8.778;2022-10-04T02:11:00;13.40;86.70
24678;DHT22;12800;53.094;8.778;2022-10-04T02:13:33;13.40;86.70
24678;DHT22;12800;53.094;8.778;2022-10-04T02:16:01;13.40;86.80
24678;DHT22;12800;53.094;8.778;2022-10-04T02:18:28;13.40;86.80
24678;DHT22;12800;53.094;8.778;2022-10-04T02:20:54;13.40;86.90
24678;DHT22;12800;53.094;8.778;2022-10-04T02:23:22;13.40;86.80
24678;DHT22;12800;53.094;8.778;2022-10-04T02:25:48;13.40;86.80
24678;DHT22;12800;53.094;8.778;2022-10-04T02:28:14;13.40;86.80
24678;DHT22;12800;53.094;8.778;2022-10-04T02:30:47;13.40;86.90
24678;DHT22;12800;53.094;8.778;2022-10-04T02:33:41;13.40;86.90
24678;DHT22;12800;53.094;8.778;2022-10-04T02:36:08;13.40;86.90
24678;DHT22;12800;53.094;8.778;2022-10-04T02:38:39;13.40;86.90
24678;DHT22;12800;53.094;8.778;2022-10-04T02:46:39;13.40;86.90
24678;DHT22;12800;53.094;8.778;2022-10-04T02:49:37;13.40;86.90
24678;DHT22;12800;53.094;8.778;2022-10-04T02:52:21;13.30;86.90
24678;DHT22;12800;53.094;8.778;2022-10-04T02:55:17;13.30;86.90
24678;DHT22;12800;53.094;8.778;2022-10-04T02:57:44;13.30;86.90
24678;DHT22;12800;53.094;8.778;2022-10-04T03:00:18;13.30;86.80
24678;DHT22;12800;53.094;8.778;2022-10-04T03:08:27;13.20;86.90
24678;DHT22;12800;53.094;8.778;2022-10-04T03:10:55;13.20;87.00
24678;DHT22;12800;53.094;8.778;2022-10-04T03:13:21;13.20;87.10
24678;DHT22;12800;53.094;8.778;2022-10-04T03:15:47;13.20;87.00
24678;DHT22;12800;53.094;8.778;2022-10-04T03:18:14;13.20;87.00
24678;DHT22;12800;53.094;8.778;2022-10-04T03:20:41;13.20;87.10
24678;DHT22;12800;53.094;8.778;2022-10-04T03:23:07;13.20;87.10
24678;DHT22;12800;53.094;8.778;2022-10-04T03:25:45;13.20;87.10
24678;DHT22;12800;53.094;8.778;2022-10-04T03:28:13;13.20;87.10
24678;DHT22;12800;53.094;8.778;2022-10-04T03:30:45;13.20;87.10
24678;DHT22;12800;53.094;8.778;2022-10-04T03:33:29;13.20;87.20
24678;DHT22;12800;53.094;8.778;2022-10-04T03:35:57;13.20;87.90
24678;DHT22;12800;53.094;8.778;2022-10-04T03:38:26;13.20;87.20
24678;DHT22;12800;53.094;8.778;2022-10-04T03:40:58;13.20;87.20
24678;DHT22;12800;53.094;8.778;2022-10-04T03:43:27;13.20;87.30
24678;DHT22;12800;53.094;8.778;2022-10-04T03:45:56;13.20;87.30
24678;DHT22;12800;53.094;8.778;2022-10-04T03:48:33;13.10;87.20
24678;DHT22;12800;53.094;8.778;2022-10-04T03:51:02;13.20;87.30
24678;DHT22;12800;53.094;8.778;2022-10-04T03:56:01;13.10;87.20
24678;DHT22;12800;53.094;8.778;2022-10-04T03:58:28;13.10;87.30
24678;DHT22;12800;53.094;8.778;2022-10-04T04:03:27;13.10;87.30
24678;DHT22;12800;53.094;8.778;2022-10-04T04:05:57;13.10;87.20
24678;DHT22;12800;53.094;8.778;2022-10-04T04:08:35;13.10;87.30
24678;DHT22;12800;53.094;8.778;2022-10-04T04:11:03;13.10;87.30
24678;DHT22;12800;53.094;8.778;2022-10-04T04:16:09;13.10;87.30
24678;DHT22;12800;53.094;8.778;2022-10-04T04:18:38;13.10;87.40
24678;DHT22;12800;53.094;8.778;2022-10-04T04:21:05;13.10;87.30
24678;DHT22;12800;53.094;8.778;2022-10-04T04:23:41;13.10;87.40
24678;DHT22;12800;53.094;8.778;2022-10-04T04:34:24;13.00;87.40
24678;DHT22;12800;53.094;8.778;2022-10-04T04:37:00;13.00;87.40
24678;DHT22;12800;53.094;8.778;2022-10-04T04:39:30;13.00;87.40
24678;DHT22;12800;53.094;8.778;2022-10-04T04:41:59;13.00;87.40
24678;DHT22;12800;53.094;8.778;2022-10-04T04:44:26;13.00;87.60
24678;DHT22;12800;53.094;8.778;2022-10-04T04:46:52;13.00;87.70
24678;DHT22;12800;53.094;8.778;2022-10-04T04:49:20;13.00;87.70
24678;DHT22;12800;53.094;8.778;2022-10-04T04:51:50;12.90;87.70
24678;DHT22;12800;53.094;8.778;2022-10-04T04:54:22;13.00;87.70
24678;DHT22;12800;53.094;8.778;2022-10-04T04:56:51;13.00;87.80
24678;DHT22;12800;53.094;8.778;2022-10-04T04:59:19;12.90;87.80
24678;DHT22;12800;53.094;8.778;2022-10-04T05:01:47;13.00;87.90
24678;DHT22;12800;53.094;8.778;2022-10-04T05:04:17;13.00;88.20
24678;DHT22;12800;53.094;8.778;2022-10-04T05:07:01;13.00;87.90
24678;DHT22;12800;53.094;8.778;2022-10-04T05:09:34;13.00;87.80
24678;DHT22;12800;53.094;8.778;2022-10-04T05:12:05;13.00;87.80
24678;DHT22;12800;53.094;8.778;2022-10-04T05:14:36;13.00;87.80
24678;DHT22;12800;53.094;8.778;2022-10-04T05:17:02;12.90;87.80
24678;DHT22;12800;53.094;8.778;2022-10-04T05:19:34;12.90;87.70
24678;DHT22;12800;53.094;8.778;2022-10-04T05:22:09;12.90;87.80
24678;DHT22;12800;53.094;8.778;2022-10-04T05:24:40;12.90;88.70
24678;DHT22;12800;53.094;8.778;2022-10-04T05:27:17;12.90;87.90
24678;DHT22;12800;53.094;8.778;2022-10-04T05:35:17;12.90;87.90
24678;DHT22;12800;53.094;8.778;2022-10-04T05:40:49;12.80;87.80
24678;DHT22;12800;53.094;8.778;2022-10-04T05:46:19;12.80;87.80
24678;DHT22;12800;53.094;8.778;2022-10-04T05:48:50;12.80;87.90
24678;DHT22;12800;53.094;8.778;2022-10-04T05:51:29;12.80;87.90
24678;DHT22;12800;53.094;8.778;2022-10-04T05:54:00;12.80;87.90
24678;DHT22;12800;53.094;8.778;2022-10-04T06:02:36;12.80;88.00
24678;DHT22;12800;53.094;8.778;2022-10-04T06:05:13;12.80;88.10
24678;DHT22;12800;53.094;8.778;2022-10-04T06:07:50;12.80;88.00
24678;DHT22;12800;53.094;8.778;2022-10-04T06:21:27;13.00;88.10
24678;DHT22;12800;53.094;8.778;2022-10-04T06:24:11;13.00;88.10
24678;DHT22;12800;53.094;8.778;2022-10-04T06:26:44;13.00;88.00
24678;DHT22;12800;53.094;8.778;2022-10-04T06:29:20;13.00;87.90
24678;DHT22;12800;53.094;8.778;2022-10-04T06:40:31;13.10;87.80
24678;DHT22;12800;53.094;8.778;2022-10-04T06:53:39;13.10;87.60
24678;DHT22;12800;53.094;8.778;2022-10-04T07:01:56;13.20;87.60
24678;DHT22;12800;53.094;8.778;2022-10-04T07:04:38;13.20;87.50
24678;DHT22;12800;53.094;8.778;2022-10-04T07:09:56;13.20;87.50
24678;DHT22;12800;53.094;8.778;2022-10-04T07:12:25;13.30;87.60
24678;DHT22;12800;53.094;8.778;2022-10-04T07:14:55;13.30;87.40
24678;DHT22;12800;53.094;8.778;2022-10-04T07:17:31;13.40;87.40
24678;DHT22;12800;53.094;8.778;2022-10-04T07:20:02;13.40;87.30
24678;DHT22;12800;53.094;8.778;2022-10-04T07:22:59;13.40;87.30
24678;DHT22;12800;53.094;8.778;2022-10-04T07:25:41;13.40;87.30
24678;DHT22;12800;53.094;8.778;2022-10-04T07:33:44;13.60;87.30
24678;DHT22;12800;53.094;8.778;2022-10-04T07:36:16;13.60;87.20
24678;DHT22;12800;53.094;8.778;2022-10-04T07:38:55;13.60;87.00
24678;DHT22;12800;53.094;8.778;2022-10-04T07:41:31;13.70;87.00
24678;DHT22;12800;53.094;8.778;2022-10-04T07:44:22;13.70;86.90
24678;DHT22;12800;53.094;8.778;2022-10-04T07:49:21;13.70;86.70
24678;DHT22;12800;53.094;8.778;2022-10-04T08:00:17;13.90;86.70
24678;DHT22;12800;53.094;8.778;2022-10-04T08:03:20;13.90;86.60
24678;DHT22;12800;53.094;8.778;2022-10-04T08:11:44;14.10;86.30
24678;DHT22;12800;53.094;8.778;2022-10-04T08:25:17;14.30;86.00
24678;DHT22;12800;53.094;8.778;2022-10-04T08:28:14;14.40;86.00
24678;DHT22;12800;53.094;8.778;2022-10-04T08:42:04;14.70;85.30
24678;DHT22;12800;53.094;8.778;2022-10-04T08:56:11;15.00;84.80
24678;DHT22;12800;53.094;8.778;2022-10-04T09:10:46;15.40;83.80
24678;DHT22;12800;53.094;8.778;2022-10-04T09:16:14;15.40;83.40
24678;DHT22;12800;53.094;8.778;2022-10-04T09:19:18;15.50;83.30
24678;DHT22;12800;53.094;8.778;2022-10-04T09:22:54;15.50;82.90
24678;DHT22;12800;53.094;8.778;2022-10-04T09:31:03;15.60;82.00
24678;DHT22;12800;53.094;8.778;2022-10-04T09:33:48;15.60;81.90
24678;DHT22;12800;53.094;8.778;2022-10-04T09:44:05;15.70;80.80
24678;DHT22;12800;53.094;8.778;2022-10-04T09:47:08;15.80;80.50
24678;DHT22;12800;53.094;8.778;2022-10-04T10:00:22;16.00;80.20
24678;DHT22;12800;53.094;8.778;2022-10-04T10:05:48;16.10;79.60
24678;DHT22;12800;53.094;8.778;2022-10-04T10:31:41;16.60;77.20
24678;DHT22;12800;53.094;8.778;2022-10-04T10:42:59;16.80;75.60
24678;DHT22;12800;53.094;8.778;2022-10-04T10:45:34;16.90;75.30
24678;DHT22;12800;53.094;8.778;2022-10-04T10:51:00;16.90;74.90
24678;DHT22;12800;53.094;8.778;2022-10-04T11:12:36;17.10;73.60
24678;DHT22;12800;53.094;8.778;2022-10-04T11:15:32;17.10;73.50
24678;DHT22;12800;53.094;8.778;2022-10-04T11:29:31;17.30;72.70
24678;DHT22;12800;53.094;8.778;2022-10-04T11:32:04;17.40;72.60
24678;DHT22;12800;53.094;8.778;2022-10-04T11:59:07;17.60;71.60
24678;DHT22;12800;53.094;8.778;2022-10-04T12:08:52;17.70;71.30
24678;DHT22;12800;53.094;8.778;2022-10-04T12:14:28;17.80;71.20
24678;DHT22;12800;53.094;8.778;2022-10-04T12:20:36;17.80;70.80
24678;DHT22;12800;53.094;8.778;2022-10-04T12:33:59;18.10;70.60
24678;DHT22;12800;53.094;8.778;2022-10-04T12:39:41;18.30;70.40
24678;DHT22;12800;53.094;8.778;2022-10-04T12:52:52;18.50;69.30
24678;DHT22;12800;53.094;8.778;2022-10-04T12:55:55;18.60;69.20
24678;DHT22;12800;53.094;8.778;2022-10-04T13:01:02;18.70;68.80
24678;DHT22;12800;53.094;8.778;2022-10-04T13:09:19;18.80;68.00
24678;DHT22;12800;53.094;8.778;2022-10-04T13:12:01;18.90;68.10
24678;DHT22;12800;53.094;8.778;2022-10-04T13:20:24;19.00;67.00
24678;DHT22;12800;53.094;8.778;2022-10-04T13:23:48;19.00;66.80
24678;DHT22;12800;53.094;8.778;2022-10-04T13:26:06;19.00;67.00
24678;DHT22;12800;53.094;8.778;2022-10-04T13:45:38;19.20;65.20
24678;DHT22;12800;53.094;8.778;2022-10-04T13:47:55;19.20;64.80
24678;DHT22;12800;53.094;8.778;2022-10-04T13:50:51;19.20;64.70
24678;DHT22;12800;53.094;8.778;2022-10-04T13:53:37;19.30;64.40
24678;DHT22;12800;53.094;8.778;2022-10-04T13:59:26;19.40;63.60
24678;DHT22;12800;53.094;8.778;2022-10-04T14:21:51;19.80;61.90
24678;DHT22;12800;53.094;8.778;2022-10-04T14:24:29;19.80;62.20
24678;DHT22;12800;53.094;8.778;2022-10-04T14:27:19;19.90;62.10
24678;DHT22;12800;53.094;8.778;2022-10-04T14:30:33;20.00;62.20
24678;DHT22;12800;53.094;8.778;2022-10-04T14:36:21;20.10;61.40
24678;DHT22;12800;53.094;8.778;2022-10-04T14:45:02;20.00;61.30
24678;DHT22;12800;53.094;8.778;2022-10-04T14:53:37;20.20;61.00
24678;DHT22;12800;53.094;8.778;2022-10-04T14:59:20;20.10;61.00
24678;DHT22;12800;53.094;8.778;2022-10-04T15:04:56;20.20;60.90
24678;DHT22;12800;53.094;8.778;2022-10-04T15:07:31;20.20;60.60
24678;DHT22;12800;53.094;8.778;2022-10-04T15:10:11;20.10;60.60
24678;DHT22;12800;53.094;8.778;2022-10-04T15:23:53;19.80;61.10
24678;DHT22;12800;53.094;8.778;2022-10-04T15:31:49;19.50;61.60
24678;DHT22;12800;53.094;8.778;2022-10-04T15:43:21;19.40;62.10
24678;DHT22;12800;53.094;8.778;2022-10-04T16:00:25;18.90;62.50
24678;DHT22;12800;53.094;8.778;2022-10-04T16:05:57;18.70;63.10
24678;DHT22;12800;53.094;8.778;2022-10-04T16:11:08;18.50;63.90
24678;DHT22;12800;53.094;8.778;2022-10-04T16:29:26;18.10;65.90
24678;DHT22;12800;53.094;8.778;2022-10-04T16:40:01;17.80;67.00
24678;DHT22;12800;53.094;8.778;2022-10-04T16:47:53;17.60;67.60
24678;DHT22;12800;53.094;8.778;2022-10-04T16:53:28;17.40;67.90
24678;DHT22;12800;53.094;8.778;2022-10-04T16:56:11;17.40;68.20
24678;DHT22;12800;53.094;8.778;2022-10-04T17:09:31;17.00;69.20
24678;DHT22;12800;53.094;8.778;2022-10-04T17:12:25;17.00;69.40
24678;DHT22;12800;53.094;8.778;2022-10-04T17:31:20;16.60;70.90
24678;DHT22;12800;53.094;8.778;2022-10-04T17:39:51;16.40;71.50
24678;DHT22;12800;53.094;8.778;2022-10-04T17:42:44;16.40;71.70
24678;DHT22;12800;53.094;8.778;2022-10-04T17:46:03;16.40;71.90
24678;DHT22;12800;53.094;8.778;2022-10-04T17:48:41;16.30;71.90
24678;DHT22;12800;53.094;8.778;2022-10-04T17:51:52;16.30;72.10
24678;DHT22;12800;53.094;8.778;2022-10-04T18:00:18;16.20;72.40
24678;DHT22;12800;53.094;8.778;2022-10-04T18:02:53;16.20;72.60
24678;DHT22;12800;53.094;8.778;2022-10-04T18:10:34;16.00;73.10
24678;DHT22;12800;53.094;8.778;2022-10-04T18:13:11;16.00;73.30
24678;DHT22;12800;53.094;8.778;2022-10-04T18:18:22;15.90;73.40
24678;DHT22;12800;53.094;8.778;2022-10-04T18:23:28;15.90;73.80
24678;DHT22;12800;53.094;8.778;2022-10-04T18:26:00;15.80;73.80
24678;DHT22;12800;53.094;8.778;2022-10-04T18:28:27;15.80;73.90
24678;DHT22;12800;53.094;8.778;2022-10-04T18:30:57;15.80;74.00
24678;DHT22;12800;53.094;8.778;2022-10-04T18:36:03;15.80;74.10
24678;DHT22;12800;53.094;8.778;2022-10-04T18:38:33;15.70;74.20
24678;DHT22;12800;53.094;8.778;2022-10-04T18:41:02;15.70;74.20
24678;DHT22;12800;53.094;8.778;2022-10-04T18:43:48;15.70;74.50
24678;DHT22;12800;53.094;8.778;2022-10-04T18:46:21;15.70;74.40
24678;DHT22;12800;53.094;8.778;2022-10-04T18:51:25;15.70;74.40
24678;DHT22;12800;53.094;8.778;2022-10-04T19:03:01;15.60;74.60
24678;DHT22;12800;53.094;8.778;2022-10-04T19:11:07;15.50;74.80
24678;DHT22;12800;53.094;8.778;2022-10-04T19:13:51;15.50;75.00
24678;DHT22;12800;53.094;8.778;2022-10-04T19:22:02;15.40;75.20
24678;DHT22;12800;53.094;8.778;2022-10-04T19:28:06;15.30;76.20
24678;DHT22;12800;53.094;8.778;2022-10-04T19:33:12;15.30;75.60
24678;DHT22;12800;53.094;8.778;2022-10-04T19:35:51;15.20;75.60
24678;DHT22;12800;53.094;8.778;2022-10-04T19:38:34;15.20;75.70
24678;DHT22;12800;53.094;8.778;2022-10-04T19:42:09;15.20;75.70
24678;DHT22;12800;53.094;8.778;2022-10-04T19:44:19;15.20;75.80
24678;DHT22;12800;53.094;8.778;2022-10-04T19:46:55;15.20;75.90
24678;DHT22;12800;53.094;8.778;2022-10-04T20:01:00;15.10;76.00
24678;DHT22;12800;53.094;8.778;2022-10-04T20:03:26;15.10;76.10
24678;DHT22;12800;53.094;8.778;2022-10-04T20:05:53;15.10;76.00
24678;DHT22;12800;53.094;8.778;2022-10-04T20:11:18;15.10;76.20
24678;DHT22;12800;53.094;8.778;2022-10-04T20:13:46;15.10;76.30
24678;DHT22;12800;53.094;8.778;2022-10-04T20:19:19;15.00;76.30
24678;DHT22;12800;53.094;8.778;2022-10-04T20:21:47;15.00;76.40
24678;DHT22;12800;53.094;8.778;2022-10-04T20:24:17;15.00;76.40
24678;DHT22;12800;53.094;8.778;2022-10-04T20:34:52;15.00;76.50
24678;DHT22;12800;53.094;8.778;2022-10-04T20:37:18;15.00;76.40
24678;DHT22;12800;53.094;8.778;2022-10-04T20:44:51;15.10;76.00
24678;DHT22;12800;53.094;8.778;2022-10-04T20:47:34;15.10;76.00
24678;DHT22;12800;53.094;8.778;2022-10-04T20:50:03;15.10;75.80
24678;DHT22;12800;53.094;8.778;2022-10-04T20:52:33;15.10;75.80
24678;DHT22;12800;53.094;8.778;2022-10-04T20:54:59;15.20;75.80
24678;DHT22;12800;53.094;8.778;2022-10-04T20:57:31;15.10;75.70
24678;DHT22;12800;53.094;8.778;2022-10-04T20:59:57;15.10;75.70
24678;DHT22;12800;53.094;8.778;2022-10-04T21:02:24;15.10;75.70
24678;DHT22;12800;53.094;8.778;2022-10-04T21:04:53;15.10;75.70
24678;DHT22;12800;53.094;8.778;2022-10-04T21:07:24;15.10;75.70
24678;DHT22;12800;53.094;8.778;2022-10-04T21:09:50;15.10;75.80
24678;DHT22;12800;53.094;8.778;2022-10-04T21:12:36;15.10;75.90
24678;DHT22;12800;53.094;8.778;2022-10-04T21:15:21;15.00;75.80
24678;DHT22;12800;53.094;8.778;2022-10-04T21:20:59;15.00;75.90
24678;DHT22;12800;53.094;8.778;2022-10-04T21:23:30;15.00;76.00
24678;DHT22;12800;53.094;8.778;2022-10-04T21:28:42;15.00;76.10
24678;DHT22;12800;53.094;8.778;2022-10-04T21:31:08;15.00;76.20
24678;DHT22;12800;53.094;8.778;2022-10-04T21:33:34;15.00;76.20
24678;DHT22;12800;53.094;8.778;2022-10-04T21:36:06;15.00;76.20
24678;DHT22;12800;53.094;8.778;2022-10-04T21:38:32;15.00;76.20
24678;DHT22;12800;53.094;8.778;2022-10-04T21:40:58;15.00;76.20
24678;DHT22;12800;53.094;8.778;2022-10-04T21:43:24;15.00;76.10
24678;DHT22;12800;53.094;8.778;2022-10-04T21:45:50;15.10;76.20
24678;DHT22;12800;53.094;8.778;2022-10-04T21:48:15;15.10;76.10
24678;DHT22;12800;53.094;8.778;2022-10-04T21:50:42;15.10;76.30
24678;DHT22;12800;53.094;8.778;2022-10-04T21:53:09;15.10;76.20
24678;DHT22;12800;53.094;8.778;2022-10-04T21:55:34;15.10;76.20
24678;DHT22;12800;53.094;8.778;2022-10-04T21:58:00;15.10;76.10
24678;DHT22;12800;53.094;8.778;2022-10-04T22:00:26;15.10;76.20
24678;DHT22;12800;53.094;8.778;2022-10-04T22:02:51;15.10;76.20
24678;DHT22;12800;53.094;8.778;2022-10-04T22:05:17;15.10;76.20
24678;DHT22;12800;53.094;8.778;2022-10-04T22:07:43;15.10;76.20
24678;DHT22;12800;53.094;8.778;2022-10-04T22:10:09;15.10;76.20
24678;DHT22;12800;53.094;8.778;2022-10-04T22:12:34;15.10;76.20
24678;DHT22;12800;53.094;8.778;2022-10-04T22:15:00;15.10;76.30
24678;DHT22;12800;53.094;8.778;2022-10-04T22:17:25;15.10;77.10
24678;DHT22;12800;53.094;8.778;2022-10-04T22:19:51;15.10;76.20
24678;DHT22;12800;53.094;8.778;2022-10-04T22:22:18;15.10;76.10
24678;DHT22;12800;53.094;8.778;2022-10-04T22:24:44;15.10;76.10
24678;DHT22;12800;53.094;8.778;2022-10-04T22:27:13;15.10;76.10
24678;DHT22;12800;53.094;8.778;2022-10-04T22:29:40;15.10;76.10
24678;DHT22;12800;53.094;8.778;2022-10-04T22:32:24;15.10;76.10
24678;DHT22;12800;53.094;8.778;2022-10-04T22:34:50;15.10;76.10
24678;DHT22;12800;53.094;8.778;2022-10-04T22:37:21;15.10;76.10
24678;DHT22;12800;53.094;8.778;2022-10-04T22:39:49;15.10;76.20
24678;DHT22;12800;53.094;8.778;2022-10-04T22:42:16;15.10;76.20
24678;DHT22;12800;53.094;8.778;2022-10-04T22:44:42;15.10;76.20
24678;DHT22;12800;53.094;8.778;2022-10-04T22:47:13;15.10;76.20
24678;DHT22;12800;53.094;8.778;2022-10-04T22:49:44;15.10;76.20
24678;DHT22;12800;53.094;8.778;2022-10-04T22:52:19;15.10;76.30
24678;DHT22;12800;53.094;8.778;2022-10-04T22:54:48;15.10;76.20
24678;DHT22;12800;53.094;8.778;2022-10-04T22:57:15;15.10;76.20
24678;DHT22;12800;53.094;8.778;2022-10-04T22:59:46;15.00;76.20
24678;DHT22;12800;53.094;8.778;2022-10-04T23:02:19;15.00;76.10
24678;DHT22;12800;53.094;8.778;2022-10-04T23:04:51;15.00;76.10
24678;DHT22;12800;53.094;8.778;2022-10-04T23:07:18;15.00;76.20
24678;DHT22;12800;53.094;8.778;2022-10-04T23:09:45;15.00;76.20
24678;DHT22;12800;53.094;8.778;2022-10-04T23:12:11;15.00;76.20
24678;DHT22;12800;53.094;8.778;2022-10-04T23:14:37;15.00;76.30
24678;DHT22;12800;53.094;8.778;2022-10-04T23:17:25;15.00;76.20
24678;DHT22;12800;53.094;8.778;2022-10-04T23:22:33;15.00;76.30
24678;DHT22;12800;53.094;8.778;2022-10-04T23:24:59;14.90;76.30
24678;DHT22;12800;53.094;8.778;2022-10-04T23:27:25;14.90;76.30
24678;DHT22;12800;53.094;8.778;2022-10-04T23:30:00;14.90;76.40
24678;DHT22;12800;53.094;8.778;2022-10-04T23:32:27;14.90;76.40
24678;DHT22;12800;53.094;8.778;2022-10-04T23:34:52;14.80;76.40
24678;DHT22;12800;53.094;8.778;2022-10-04T23:37:22;14.80;76.40
24678;DHT22;12800;53.094;8.778;2022-10-04T23:39:49;14.80;76.40
24678;DHT22;12800;53.094;8.778;2022-10-04T23:42:24;14.80;76.50
24678;DHT22;12800;53.094;8.778;2022-10-04T23:44:55;14.80;76.50
24678;DHT22;12800;53.094;8.778;2022-10-04T23:47:22;14.80;76.50
24678;DHT22;12800;53.094;8.778;2022-10-04T23:49:51;14.80;76.50
24678;DHT22;12800;53.094;8.778;2022-10-04T23:52:37;14.70;76.50
24678;DHT22;12800;53.094;8.778;2022-10-04T23:55:17;14.70;76.50
24678;DHT22;12800;53.094;8.778;2022-10-04T23:57:44;14.70;76.60
